Time;durP1;ratioP1;P1;durP2;ratioP2;P2;SDS_P1;SDS_P2;PMS_P1;PMS_P2;Temp;Humidity;BMP_temperature;BMP_pressure;BME280_temperature;BME280_humidity;BME280_pressure;Samples;Min_cycle;Max_cycle;Signal;HPM_P1;HPM_P2
2024/01/13 00:03:11;;;;;;;3.38;1.17;;;;;;;-8.47;96.17;100283.34;10252059;28;20047;-78
2024/01/13 00:08:12;;;;;;;4.38;1.10;;;;;;;-8.43;96.35;100276.41;10251580;28;20492;-77
2024/01/13 00:13:13;;;;;;;2.70;0.85;;;;;;;-8.74;96.21;100231.84;10250502;29;20039;-78
2024/01/13 00:18:14;;;;;;;2.33;0.88;;;;;;;-8.31;95.99;100294.84;10251000;28;20039;-77
2024/01/13 00:23:15;;;;;;;3.15;1.05;;;;;;;-8.37;96.16;100302.78;10250958;29;20043;-78
2024/01/13 00:28:15;;;;;;;2.00;0.80;;;;;;;-8.37;96.06;100302.78;10251721;28;20102;-78
2024/01/13 00:33:16;;;;;;;4.88;1.23;;;;;;;-8.40;95.25;100308.06;10250737;29;20035;-77
2024/01/13 00:38:17;;;;;;;2.03;0.90;;;;;;;-8.39;95.03;100296.00;10250631;29;20488;-77
2024/01/13 00:43:18;;;;;;;2.65;1.20;;;;;;;-8.64;94.91;100267.63;10250453;29;20059;-77
2024/01/13 00:48:18;;;;;;;3.17;1.02;;;;;;;-8.24;94.75;100331.56;10256945;28;20043;-77
2024/01/13 00:53:19;;;;;;;2.42;0.70;;;;;;;-8.37;94.57;100343.16;10258742;28;20062;-77
2024/01/13 00:58:20;;;;;;;3.45;1.08;;;;;;;-8.54;94.10;100335.97;10258529;28;20070;-77
2024/01/13 01:03:21;;;;;;;2.63;1.10;;;;;;;-8.52;93.97;100360.78;10257905;29;20070;-77
2024/01/13 01:08:22;;;;;;;3.20;1.10;;;;;;;-8.58;93.67;100336.97;10258104;29;20514;-78
2024/01/13 01:13:23;;;;;;;2.70;1.00;;;;;;;-8.37;93.48;100356.88;10258661;28;20094;-80
2024/01/13 01:18:23;;;;;;;4.40;1.50;;;;;;;-8.58;93.45;100318.94;10257798;29;20043;-79
2024/01/13 01:23:24;;;;;;;6.15;1.35;;;;;;;-8.38;93.28;100375.78;10256901;29;20043;-79
2024/01/13 01:28:25;;;;;;;4.25;1.48;;;;;;;-8.47;93.15;100378.66;10257900;29;20134;-79
2024/01/13 01:33:26;;;;;;;3.17;1.50;;;;;;;-8.47;92.79;100388.97;10254624;29;20043;-79
2024/01/13 01:38:26;;;;;;;3.72;1.20;;;;;;;-8.71;92.54;100363.97;10256763;28;20070;-79
2024/01/13 01:43:27;;;;;;;3.28;1.40;;;;;;;-9.14;92.59;100318.91;10257360;29;20574;-78
2024/01/13 01:48:33;;;;;;;8.35;1.50;;;;;;;-8.56;92.17;100426.16;10255957;29;20036;-78
2024/01/13 01:53:35;;;;;;;4.03;1.55;;;;;;;-8.78;91.62;100400.19;10256208;29;20043;-79
2024/01/13 01:58:37;;;;;;;4.07;1.50;;;;;;;-8.62;91.39;100412.63;10255226;28;20039;-79
2024/01/13 02:03:39;;;;;;;3.50;1.38;;;;;;;-8.82;90.79;100365.16;10256036;29;20121;-79
2024/01/13 02:08:40;;;;;;;8.90;1.58;;;;;;;-8.44;91.13;100422.38;10255967;29;20095;-79
2024/01/13 02:13:43;;;;;;;5.53;1.15;;;;;;;-8.65;90.67;100425.59;10253960;29;20071;-79
2024/01/13 02:18:44;;;;;;;3.63;1.33;;;;;;;-8.74;90.28;100427.53;10255794;28;20039;-79
2024/01/13 02:23:45;;;;;;;4.25;1.52;;;;;;;-8.73;90.33;100449.84;10255908;28;20061;-79
2024/01/13 02:28:45;;;;;;;3.85;1.65;;;;;;;-8.66;90.06;100465.94;10254457;29;20054;-78
2024/01/13 02:33:46;;;;;;;5.10;1.65;;;;;;;-8.55;90.28;100465.66;10254333;29;20043;-78
2024/01/13 02:38:47;;;;;;;3.10;1.38;;;;;;;-8.40;90.27;100469.53;10254553;29;20405;-79
2024/01/13 02:43:48;;;;;;;3.85;1.40;;;;;;;-8.69;90.15;100427.41;10255028;29;20512;-78
2024/01/13 02:48:54;;;;;;;4.28;1.38;;;;;;;-8.41;89.77;100480.69;10253795;29;20051;-78
2024/01/13 02:53:55;;;;;;;5.45;1.75;;;;;;;-8.52;90.31;100473.31;10253630;29;20039;-78
2024/01/13 02:58:55;;;;;;;5.85;1.50;;;;;;;-8.32;90.67;100507.00;10253893;29;20036;-78
2024/01/13 03:03:56;;;;;;;4.50;1.65;;;;;;;-8.41;90.22;100521.91;10254228;29;20043;-78
2024/01/13 03:08:57;;;;;;;3.60;1.30;;;;;;;-8.58;90.70;100522.41;10253698;28;20071;-79
2024/01/13 03:13:58;;;;;;;4.30;1.90;;;;;;;-8.81;91.21;100523.88;10253517;28;20043;-79
2024/01/13 03:18:59;;;;;;;3.83;1.85;;;;;;;-9.06;91.03;100525.38;10253157;28;20047;-80
2024/01/13 03:23:59;;;;;;;6.00;2.55;;;;;;;-9.38;91.25;100532.22;10252792;29;20134;-79
2024/01/13 03:29:00;;;;;;;7.38;2.30;;;;;;;-9.63;90.43;100537.09;10252820;29;20106;-79
2024/01/13 03:34:01;;;;;;;6.75;2.72;;;;;;;-9.88;90.48;100554.78;10252841;29;20133;-79
2024/01/13 03:39:03;;;;;;;4.55;1.88;;;;;;;-10.16;89.22;100563.09;10252731;29;20043;-79
2024/01/13 03:44:04;;;;;;;3.20;1.52;;;;;;;-10.60;89.61;100516.09;10252245;29;20066;-79
2024/01/13 03:49:04;;;;;;;3.33;1.52;;;;;;;-10.44;89.49;100573.13;10252222;29;20105;-79
2024/01/13 03:54:05;;;;;;;4.15;1.55;;;;;;;-10.64;89.08;100586.34;10252644;28;20431;-79
2024/01/13 03:59:06;;;;;;;5.32;2.10;;;;;;;-10.86;88.83;100595.28;10252042;29;20098;-79
2024/01/13 04:04:07;;;;;;;7.72;2.13;;;;;;;-11.04;88.49;100616.97;10246226;29;20054;-77
2024/01/13 04:09:08;;;;;;;3.35;1.58;;;;;;;-11.15;88.88;100624.88;10249931;29;20047;-79
2024/01/13 04:14:09;;;;;;;3.60;1.90;;;;;;;-11.32;88.81;100634.53;10252237;29;20090;-79
2024/01/13 04:19:10;;;;;;;11.13;4.93;;;;;;;-11.54;88.42;100647.66;10251679;28;20046;-79
2024/01/13 04:24:11;;;;;;;4.68;2.13;;;;;;;-11.73;88.49;100644.50;10258544;28;20044;-79
2024/01/13 04:29:12;;;;;;;5.30;2.90;;;;;;;-11.86;88.31;100644.72;10259412;29;20051;-77
2024/01/13 04:34:12;;;;;;;7.57;2.78;;;;;;;-12.24;88.33;100628.09;10258757;29;20039;-79
2024/01/13 04:39:13;;;;;;;3.63;1.83;;;;;;;-12.15;88.40;100670.69;10257429;29;20090;-79
2024/01/13 04:44:14;;;;;;;5.80;2.38;;;;;;;-12.39;88.22;100629.13;10251996;29;20483;-79
2024/01/13 04:49:15;;;;;;;9.02;3.03;;;;;;;-12.19;88.22;100669.88;10259145;29;20050;-80
2024/01/13 04:54:16;;;;;;;5.03;1.95;;;;;;;-12.40;87.96;100652.19;10258076;29;20047;-79
2024/01/13 04:59:16;;;;;;;40.15;11.98;;;;;;;-12.14;87.87;100701.41;10258632;29;20149;-79
2024/01/13 05:04:17;;;;;;;22.45;8.10;;;;;;;-12.25;87.58;100685.31;10258747;28;20085;-78
2024/01/13 05:09:18;;;;;;;26.48;10.75;;;;;;;-11.97;87.48;100722.53;10257959;29;20129;-79
2024/01/13 05:14:19;;;;;;;30.60;8.88;;;;;;;-11.80;87.28;100718.91;10257951;28;20055;-79
2024/01/13 05:19:20;;;;;;;20.35;9.10;;;;;;;-11.82;87.33;100723.19;10256998;29;20049;-77
2024/01/13 05:24:21;;;;;;;13.25;6.82;;;;;;;-11.64;86.89;100717.84;10249063;29;20047;-73
2024/01/13 05:29:22;;;;;;;7.85;3.50;;;;;;;-11.24;86.88;100721.63;10257234;28;20517;-78
2024/01/13 05:34:22;;;;;;;5.57;2.17;;;;;;;-10.88;86.12;100731.34;10253947;28;20531;-75
2024/01/13 05:39:23;;;;;;;9.05;2.78;;;;;;;-10.55;85.50;100731.69;10249765;28;20451;-74
2024/01/13 05:44:25;;;;;;;5.97;2.28;;;;;;;-10.15;85.02;100736.06;10233774;28;20055;-78
2024/01/13 05:49:26;;;;;;;4.22;1.83;;;;;;;-10.30;84.39;100662.75;10236586;29;20102;-75
2024/01/13 05:54:27;;;;;;;5.00;2.17;;;;;;;-9.33;84.16;100746.47;10256240;28;20098;-75
2024/01/13 05:59:28;;;;;;;3.28;1.73;;;;;;;-8.92;83.22;100749.84;10242608;29;20055;-75
2024/01/13 06:04:29;;;;;;;6.05;1.60;;;;;;;-8.96;82.19;100701.91;10254939;28;20039;-75
2024/01/13 06:09:30;;;;;;;4.28;1.95;;;;;;;-8.65;81.30;100768.97;10256298;29;20053;-75
2024/01/13 06:14:30;;;;;;;5.78;1.77;;;;;;;-8.52;81.04;100751.50;10256533;28;20562;-75
2024/01/13 06:19:31;;;;;;;5.45;2.17;;;;;;;-8.26;80.90;100779.16;10255438;28;20047;-76
2024/01/13 06:24:32;;;;;;;4.70;2.50;;;;;;;-8.38;79.67;100727.94;10253469;28;20090;-75
2024/01/13 06:29:33;;;;;;;5.18;2.40;;;;;;;-8.08;79.57;100773.53;10254517;28;20054;-74
2024/01/13 06:34:33;;;;;;;7.45;1.90;;;;;;;-8.15;79.29;100784.03;10252691;28;20051;-75
2024/01/13 06:39:34;;;;;;;4.05;1.88;;;;;;;-8.77;78.94;100687.69;10252490;28;20054;-73
2024/01/13 06:44:35;;;;;;;6.63;1.95;;;;;;;-8.20;79.77;100784.16;10253331;28;20137;-74
2024/01/13 06:49:36;;;;;;;3.78;1.77;;;;;;;-8.15;78.24;100794.34;10253567;29;20508;-74
2024/01/13 06:54:37;;;;;;;3.88;1.60;;;;;;;-8.89;77.52;100705.16;10253602;28;20126;-75
2024/01/13 06:59:37;;;;;;;6.28;2.08;;;;;;;-8.18;79.14;100781.53;10254105;29;20043;-74
2024/01/13 07:04:41;;;;;;;3.83;1.90;;;;;;;-8.11;78.99;100793.38;10253682;28;20043;-74
2024/01/13 07:09:42;;;;;;;6.18;1.75;;;;;;;-7.75;78.88;100808.78;10252354;29;20482;-75
2024/01/13 07:14:43;;;;;;;4.53;1.92;;;;;;;-8.17;77.10;100767.75;10251811;28;20126;-76
2024/01/13 07:19:43;;;;;;;3.60;1.75;;;;;;;-7.80;77.10;100757.34;10251818;28;20054;-77
2024/01/13 07:24:44;;;;;;;3.50;1.50;;;;;;;-7.30;76.29;100823.91;10252349;28;20067;-77
2024/01/13 07:29:45;;;;;;;3.38;1.67;;;;;;;-7.19;75.69;100832.19;10251700;28;20057;-78
2024/01/13 07:34:46;;;;;;;4.45;2.05;;;;;;;-7.46;75.00;100793.38;10253300;29;20098;-75
2024/01/13 07:39:47;;;;;;;4.45;1.73;;;;;;;-7.44;74.43;100826.88;10251398;28;20047;-78
2024/01/13 07:44:47;;;;;;;4.72;1.95;;;;;;;-7.48;73.67;100802.03;10252641;28;20087;-77
2024/01/13 07:49:48;;;;;;;3.78;1.52;;;;;;;-7.28;73.16;100824.72;10251675;29;20071;-78
2024/01/13 07:54:49;;;;;;;8.40;1.67;;;;;;;-7.44;72.41;100791.59;10251674;29;20070;-77
2024/01/13 07:59:50;;;;;;;6.15;1.95;;;;;;;-7.16;73.05;100839.84;10253166;29;20039;-78
2024/01/13 08:04:50;;;;;;;5.10;2.08;;;;;;;-7.94;72.43;100738.81;10252014;29;20046;-78
2024/01/13 08:09:52;;;;;;;5.80;2.20;;;;;;;-7.68;72.76;100805.19;10251731;29;20126;-78
2024/01/13 08:14:52;;;;;;;5.15;2.30;;;;;;;-7.33;72.68;100836.91;10252380;29;20051;-78
2024/01/13 08:19:53;;;;;;;3.80;1.65;;;;;;;-7.15;72.23;100818.31;10251672;29;20043;-77
2024/01/13 08:24:54;;;;;;;5.53;1.67;;;;;;;-7.52;71.72;100725.63;10252502;29;20485;-78
2024/01/13 08:29:55;;;;;;;4.38;1.80;;;;;;;-6.72;71.65;100822.22;10250847;29;20046;-79
2024/01/13 08:34:55;;;;;;;6.97;2.58;;;;;;;-7.24;71.85;100790.16;10250472;29;20035;-76
2024/01/13 08:39:56;;;;;;;4.38;1.83;;;;;;;-7.16;71.11;100826.94;10250693;28;20472;-77
2024/01/13 08:44:57;;;;;;;4.55;1.70;;;;;;;-7.37;71.74;100815.50;10252016;29;20055;-77
2024/01/13 08:49:58;;;;;;;3.83;1.70;;;;;;;-7.56;71.31;100789.38;10250871;28;20054;-77
2024/01/13 08:54:59;;;;;;;4.97;1.77;;;;;;;-7.12;70.71;100802.72;10251458;28;20046;-78
2024/01/13 09:00:00;;;;;;;5.18;1.60;;;;;;;-7.05;70.47;100780.16;10250453;28;20043;-77
2024/01/13 09:05:00;;;;;;;4.03;1.55;;;;;;;-6.84;69.86;100776.94;10249498;28;20043;-78
2024/01/13 09:10:02;;;;;;;4.78;1.42;;;;;;;-6.82;70.17;100811.31;10250944;28;20054;-78
2024/01/13 09:15:06;;;;;;;4.97;1.80;;;;;;;-6.81;69.67;100796.66;10256929;29;20110;-78
2024/01/13 09:20:09;;;;;;;4.40;1.98;;;;;;;-6.48;70.07;100805.94;10257413;29;20122;-77
2024/01/13 09:25:09;;;;;;;3.42;1.70;;;;;;;-6.78;69.30;100810.31;10256855;29;20511;-76
2024/01/13 09:30:11;;;;;;;4.47;1.42;;;;;;;-6.91;70.43;100812.44;10257229;28;20055;-76
2024/01/13 09:35:12;;;;;;;3.05;1.40;;;;;;;-6.92;70.24;100809.88;10250785;29;20047;-76
2024/01/13 09:40:15;;;;;;;4.32;1.20;;;;;;;-7.30;68.71;100738.72;10256335;29;20125;-78
2024/01/13 09:45:19;;;;;;;4.25;1.27;;;;;;;-7.00;68.85;100765.38;10255060;28;20059;-77
2024/01/13 09:50:19;;;;;;;3.07;1.20;;;;;;;-6.76;68.91;100802.50;10256722;28;20039;-77
2024/01/13 09:55:21;;;;;;;6.82;1.48;;;;;;;-6.74;68.11;100813.66;10255296;28;20035;-77
2024/01/13 10:00:22;;;;;;;5.15;1.63;;;;;;;-6.71;68.90;100793.72;10254767;29;20046;-78
2024/01/13 10:05:24;;;;;;;3.80;1.80;;;;;;;-6.45;67.85;100811.00;10254748;29;20033;-76
2024/01/13 10:10:25;;;;;;;3.17;1.40;;;;;;;-6.43;68.21;100747.19;10254964;28;20047;-72
2024/01/13 10:15:26;;;;;;;4.82;1.60;;;;;;;-6.26;67.16;100764.72;10255676;28;20035;-76
2024/01/13 10:20:27;;;;;;;4.85;1.95;;;;;;;-6.17;68.26;100789.44;10253924;28;20047;-78
2024/01/13 10:25:28;;;;;;;7.63;1.63;;;;;;;-6.67;67.82;100740.22;10255210;28;20046;-74
2024/01/13 10:30:29;;;;;;;4.25;1.80;;;;;;;-6.47;67.88;100740.44;10253404;29;20422;-77
2024/01/13 10:35:30;;;;;;;3.92;1.33;;;;;;;-6.31;68.12;100801.97;10254621;28;20035;-78
2024/01/13 10:40:31;;;;;;;3.15;1.50;;;;;;;-6.03;67.68;100826.03;10254867;29;20062;-78
2024/01/13 10:45:36;;;;;;;3.13;1.90;;;;;;;-6.49;66.01;100781.00;10255126;29;20129;-78
2024/01/13 10:50:39;;;;;;;4.18;1.40;;;;;;;-6.43;67.08;100778.22;10254508;28;20086;-77
2024/01/13 10:55:42;;;;;;;3.10;1.55;;;;;;;-6.79;66.90;100733.72;10253610;28;20069;-78
2024/01/13 11:00:43;;;;;;;3.22;1.45;;;;;;;-6.15;66.96;100826.44;10254530;28;20039;-77
2024/01/13 11:05:46;;;;;;;5.18;1.70;;;;;;;-6.19;66.65;100804.19;10253248;28;20047;-77
2024/01/13 11:10:50;;;;;;;3.22;1.52;;;;;;;-6.11;66.52;100809.06;10253635;28;20047;-77
2024/01/13 11:16:06;;;;;;;5.00;2.08;;;;;;;-6.23;65.78;100810.31;10253117;28;20047;-77
2024/01/13 11:21:08;;;;;;;3.40;1.42;;;;;;;-6.42;67.32;100817.84;10253909;28;20411;-77
2024/01/13 11:26:10;;;;;;;2.75;1.40;;;;;;;-6.49;67.93;100821.47;10253352;29;20039;-81
2024/01/13 11:31:33;;;;;;;4.38;1.65;;;;;;;-6.46;65.27;100832.59;10252521;28;20094;-78
2024/01/13 11:36:38;;;;;;;3.22;1.25;;;;;;;-6.52;67.18;100831.91;10251179;29;20480;-77
2024/01/13 11:41:41;;;;;;;4.53;2.10;;;;;;;-6.63;66.92;100834.84;10252909;29;20054;-71
2024/01/13 11:46:59;;;;;;;3.60;1.73;;;;;;;-6.81;66.48;100835.41;10251388;28;20508;-71
2024/01/13 11:52:07;;;;;;;4.85;1.88;;;;;;;-7.07;66.88;100824.09;10244023;29;20050;-68
2024/01/13 11:57:27;;;;;;;4.68;1.70;;;;;;;-7.04;68.35;100839.50;10231857;28;20459;-70
2024/01/13 12:02:28;;;;;;;4.75;1.80;;;;;;;-6.97;67.65;100858.25;10229231;28;20047;-71
2024/01/13 12:07:30;;;;;;;3.38;1.63;;;;;;;-7.12;68.01;100847.47;10226285;28;20055;-71
2024/01/13 12:12:31;;;;;;;4.45;2.00;;;;;;;-7.15;68.77;100851.88;10228108;29;20186;-72
2024/01/13 12:17:32;;;;;;;2.55;1.23;;;;;;;-7.20;68.43;100849.44;10251054;28;20458;-71
2024/01/13 12:22:32;;;;;;;4.65;1.73;;;;;;;-7.06;68.83;100868.84;10242473;28;20436;-70
2024/01/13 12:27:34;;;;;;;4.65;1.70;;;;;;;-7.28;69.09;100816.97;10252034;28;20047;-69
2024/01/13 12:32:35;;;;;;;4.78;1.95;;;;;;;-7.19;68.97;100861.44;10251504;28;20047;-70
2024/01/13 12:37:36;;;;;;;4.72;1.95;;;;;;;-7.08;69.60;100879.22;10250290;29;20117;-70
2024/01/13 12:42:40;;;;;;;4.72;1.55;;;;;;;-6.95;69.05;100883.13;10253635;28;20510;-70
2024/01/13 12:47:41;;;;;;;6.55;1.63;;;;;;;-7.04;69.39;100891.16;10256585;29;20508;-70
2024/01/13 12:52:42;;;;;;;3.40;1.42;;;;;;;-7.10;70.03;100886.16;10257370;28;20058;-70
2024/01/13 12:57:43;;;;;;;3.67;1.67;;;;;;;-7.10;70.51;100905.97;10258542;28;20039;-71
2024/01/13 13:02:44;;;;;;;7.35;2.08;;;;;;;-7.16;70.37;100914.72;10258250;29;20043;-69
2024/01/13 13:07:45;;;;;;;4.38;1.65;;;;;;;-7.58;70.81;100861.63;10258992;29;20053;-70
2024/01/13 13:12:47;;;;;;;5.43;1.98;;;;;;;-7.38;71.11;100920.47;10256896;29;20047;-70
2024/01/13 13:17:50;;;;;;;3.47;1.65;;;;;;;-7.50;71.79;100920.78;10255537;29;20051;-69
2024/01/13 13:22:52;;;;;;;4.38;1.50;;;;;;;-7.72;71.88;100924.78;10256618;29;20050;-71
2024/01/13 13:27:53;;;;;;;5.20;1.92;;;;;;;-7.89;71.99;100920.91;10257719;28;20143;-70
2024/01/13 13:32:54;;;;;;;4.50;1.90;;;;;;;-7.93;71.89;100942.47;10257414;28;20078;-70
2024/01/13 13:37:55;;;;;;;4.90;1.80;;;;;;;-8.28;72.43;100897.75;10254799;29;20073;-70
2024/01/13 13:42:55;;;;;;;4.45;1.90;;;;;;;-8.17;72.33;100943.03;10256740;29;20051;-71
2024/01/13 13:47:58;;;;;;;6.80;1.80;;;;;;;-8.57;72.83;100887.28;10256860;29;20051;-71
2024/01/13 13:52:58;;;;;;;6.47;2.47;;;;;;;-8.32;73.05;100955.38;10253114;28;20047;-70
2024/01/13 13:58:00;;;;;;;5.93;2.03;;;;;;;-8.55;73.30;100931.91;10256305;29;20051;-69
2024/01/13 14:03:01;;;;;;;4.07;1.75;;;;;;;-8.66;72.99;100959.59;10254250;29;20046;-70
2024/01/13 14:08:02;;;;;;;6.30;2.00;;;;;;;-8.82;73.81;100969.38;10254075;29;20050;-70
2024/01/13 14:13:03;;;;;;;8.50;2.22;;;;;;;-9.13;73.36;100984.53;10253630;29;20074;-70
2024/01/13 14:18:05;;;;;;;6.20;2.15;;;;;;;-9.31;73.85;100986.53;10256235;28;20407;-69
2024/01/13 14:23:05;;;;;;;5.45;2.25;;;;;;;-9.53;74.27;100978.34;10255072;29;20039;-70
2024/01/13 14:28:07;;;;;;;7.25;2.50;;;;;;;-9.48;74.28;100998.84;10253966;29;20042;-70
2024/01/13 14:33:08;;;;;;;8.88;2.10;;;;;;;-9.54;74.52;100996.38;10254961;28;20539;-69
2024/01/13 14:38:09;;;;;;;11.90;3.58;;;;;;;-9.77;74.27;100986.47;10254792;28;20094;-69
2024/01/13 14:43:09;;;;;;;17.98;4.15;;;;;;;-10.03;75.07;100958.56;10254805;29;20059;-70
2024/01/13 14:48:10;;;;;;;30.33;11.20;;;;;;;-10.41;74.86;100934.31;10254583;29;20443;-69
2024/01/13 14:53:11;;;;;;;23.95;8.43;;;;;;;-10.17;75.19;100998.19;10254277;28;20047;-69
2024/01/13 14:58:13;;;;;;;25.17;7.20;;;;;;;-10.13;75.53;100984.41;10253079;29;20094;-70
2024/01/13 15:03:14;;;;;;;18.48;6.38;;;;;;;-10.14;75.61;101000.72;10251442;28;20090;-69
2024/01/13 15:08:14;;;;;;;18.83;5.68;;;;;;;-10.28;75.68;100983.81;10248118;29;20102;-72
2024/01/13 15:13:15;;;;;;;12.57;5.07;;;;;;;-10.18;75.95;101011.88;10253676;28;20047;-71
2024/01/13 15:18:17;;;;;;;13.15;4.90;;;;;;;-10.20;75.61;101000.78;10235541;29;20047;-69
2024/01/13 15:23:19;;;;;;;14.52;5.18;;;;;;;-10.57;75.71;100947.34;10247541;29;20526;-71
2024/01/13 15:28:19;;;;;;;15.25;4.35;;;;;;;-10.10;76.26;100996.38;10251763;28;20062;-68
2024/01/13 15:33:20;;;;;;;17.52;4.55;;;;;;;-10.20;76.43;100980.25;10253436;29;20439;-70
2024/01/13 15:38:21;;;;;;;10.35;3.85;;;;;;;-10.41;76.25;100947.16;10251896;29;20541;-69
2024/01/13 15:43:22;;;;;;;17.05;4.32;;;;;;;-10.29;76.76;100993.22;10246825;28;20047;-69
2024/01/13 15:48:23;;;;;;;10.45;4.18;;;;;;;-10.34;76.82;100997.59;10244119;29;20038;-70
2024/01/13 15:53:24;;;;;;;16.35;4.53;;;;;;;-10.96;76.65;100899.09;10251838;28;20050;-70
2024/01/13 15:58:26;;;;;;;10.55;3.72;;;;;;;-10.65;76.54;100995.41;10244902;29;20043;-71
2024/01/13 16:03:26;;;;;;;12.43;4.38;;;;;;;-10.84;76.63;101006.75;10251428;28;20067;-70
2024/01/13 16:08:28;;;;;;;6.22;2.75;;;;;;;-11.25;77.05;100964.41;10251706;28;20106;-70
2024/01/13 16:13:29;;;;;;;6.90;2.38;;;;;;;-10.94;76.39;101007.72;10250716;29;20039;-73
2024/01/13 16:18:30;;;;;;;5.75;1.92;;;;;;;-10.98;76.75;100995.75;10250386;28;20407;-69
2024/01/13 16:23:33;;;;;;;8.48;3.55;;;;;;;-10.65;77.34;101028.78;10249465;29;20039;-69
2024/01/13 16:28:33;;;;;;;61.30;21.30;;;;;;;-10.62;76.82;100999.63;10250524;28;20466;-68
2024/01/13 16:33:34;;;;;;;14.25;6.00;;;;;;;-10.57;76.54;101026.94;10249480;28;20048;-69
2024/01/13 16:38:35;;;;;;;8.88;3.90;;;;;;;-10.63;76.96;101045.00;10251355;29;20126;-69
2024/01/13 16:43:36;;;;;;;6.82;3.10;;;;;;;-10.68;76.78;101046.75;10251680;29;20483;-69
2024/01/13 16:48:37;;;;;;;8.90;3.30;;;;;;;-11.07;76.85;100971.94;10249731;28;20134;-69
2024/01/13 16:53:38;;;;;;;5.90;2.80;;;;;;;-10.71;77.19;101035.69;10251234;29;20047;-70
2024/01/13 16:58:39;;;;;;;7.80;2.78;;;;;;;-10.96;77.68;100966.66;10250945;28;20050;-69
2024/01/13 17:03:40;;;;;;;26.50;3.55;;;;;;;-10.46;77.75;101038.84;10250757;28;20046;-68
2024/01/13 17:08:41;;;;;;;9.90;2.70;;;;;;;-10.42;77.73;101040.50;10249132;29;20487;-69
2024/01/13 17:13:42;;;;;;;8.40;2.85;;;;;;;-10.53;77.47;101014.91;10246812;28;20048;-69
2024/01/13 17:18:46;;;;;;;8.18;3.20;;;;;;;-10.68;77.04;101002.28;10247957;28;20087;-72
2024/01/13 17:23:47;;;;;;;4.85;2.30;;;;;;;-10.60;77.48;101024.41;10221786;29;20518;-69
2024/01/13 17:28:48;;;;;;;7.85;2.67;;;;;;;-10.67;77.25;101016.81;10223036;29;20134;-69
2024/01/13 17:33:50;;;;;;;9.98;3.22;;;;;;;-10.62;77.57;101017.59;10240478;28;20044;-69
2024/01/13 17:38:51;;;;;;;12.65;4.45;;;;;;;-10.73;77.28;101022.88;10217451;29;20103;-69
2024/01/13 17:43:53;;;;;;;21.20;6.80;;;;;;;-10.88;77.67;101026.47;10230331;29;20051;-69
2024/01/13 17:48:54;;;;;;;18.58;6.47;;;;;;;-10.84;77.97;101027.28;10255973;28;20567;-69
2024/01/13 17:53:55;;;;;;;19.67;5.97;;;;;;;-11.02;78.31;101023.19;10255708;28;20031;-71
2024/01/13 17:58:56;;;;;;;35.58;9.30;;;;;;;-11.17;77.90;101021.59;10255203;28;20043;-69
2024/01/13 18:03:58;;;;;;;26.02;9.00;;;;;;;-11.28;78.52;101024.25;10255120;28;20532;-68
2024/01/13 18:08:58;;;;;;;14.98;5.35;;;;;;;-11.15;78.60;101024.19;10253869;29;20504;-69
2024/01/13 18:13:59;;;;;;;28.05;9.30;;;;;;;-11.02;78.91;101033.44;10255647;28;20078;-68
2024/01/13 18:19:00;;;;;;;26.38;7.88;;;;;;;-11.19;78.84;101022.47;10256376;29;20051;-68
2024/01/13 18:24:01;;;;;;;24.55;7.88;;;;;;;-11.43;79.02;101032.09;10255036;29;20035;-68
2024/01/13 18:29:02;;;;;;;23.70;6.93;;;;;;;-11.68;79.32;101010.94;10255197;28;20043;-68
2024/01/13 18:34:02;;;;;;;18.25;5.13;;;;;;;-11.77;79.70;101029.78;10255297;29;20043;-69
2024/01/13 18:39:03;;;;;;;31.50;12.75;;;;;;;-11.73;80.30;101039.16;10253383;28;20039;-69
2024/01/13 18:44:05;;;;;;;12.85;5.70;;;;;;;-11.77;80.54;101049.44;10255136;28;20150;-68
2024/01/13 18:49:06;;;;;;;37.78;17.00;;;;;;;-12.25;80.44;100978.03;10253174;29;20157;-68
2024/01/13 18:54:07;;;;;;;14.95;6.82;;;;;;;-12.02;80.95;101049.63;10254415;28;20135;-68
2024/01/13 18:59:07;;;;;;;16.13;6.85;;;;;;;-12.17;80.56;101054.84;10254157;29;20039;-68
2024/01/13 19:04:08;;;;;;;13.85;6.03;;;;;;;-12.27;80.75;101042.91;10252079;29;20142;-68
2024/01/13 19:09:09;;;;;;;14.60;4.97;;;;;;;-12.19;81.07;101051.41;10252659;29;20420;-68
2024/01/13 19:14:10;;;;;;;12.07;4.95;;;;;;;-12.18;81.21;101045.44;10253598;28;20047;-68
2024/01/13 19:19:11;;;;;;;11.65;5.03;;;;;;;-12.29;81.24;101048.06;10251608;29;20510;-68
2024/01/13 19:24:13;;;;;;;11.38;5.13;;;;;;;-12.38;81.28;101047.22;10251404;29;20420;-68
2024/01/13 19:29:14;;;;;;;9.82;4.85;;;;;;;-12.53;81.18;101055.81;10252826;28;20043;-72
2024/01/13 19:34:15;;;;;;;8.75;4.13;;;;;;;-12.63;80.71;101042.19;10252349;28;20488;-68
2024/01/13 19:39:15;;;;;;;8.82;3.55;;;;;;;-12.59;81.58;101053.28;10251278;29;20042;-68
2024/01/13 19:44:16;;;;;;;11.27;4.28;;;;;;;-12.71;81.28;101072.94;10250132;28;20051;-68
2024/01/13 19:49:17;;;;;;;8.52;3.55;;;;;;;-12.95;81.37;101030.38;10251880;29;20094;-69
2024/01/13 19:54:18;;;;;;;8.68;4.40;;;;;;;-12.67;81.46;101073.78;10252020;28;20568;-68
2024/01/13 19:59:19;;;;;;;13.25;4.22;;;;;;;-12.73;81.21;101084.88;10250372;29;20035;-68
2024/01/13 20:04:19;;;;;;;8.32;4.80;;;;;;;-12.85;81.34;101059.34;10251444;28;20534;-68
2024/01/13 20:09:20;;;;;;;9.57;4.57;;;;;;;-12.85;81.19;101063.59;10251943;29;20126;-68
2024/01/13 20:14:22;;;;;;;13.70;5.43;;;;;;;-12.67;81.13;101086.59;10251675;29;20502;-68
2024/01/13 20:19:26;;;;;;;7.97;4.03;;;;;;;-12.84;81.05;101058.47;10251726;29;20054;-68
2024/01/13 20:24:28;;;;;;;9.38;4.03;;;;;;;-12.72;81.14;101076.34;10251530;29;20047;-68
2024/01/13 20:29:29;;;;;;;9.85;4.00;;;;;;;-12.71;81.09;101087.44;10250763;29;20538;-68
2024/01/13 20:34:29;;;;;;;7.20;3.42;;;;;;;-12.72;81.29;101088.28;10250875;29;20081;-72
2024/01/13 20:39:30;;;;;;;7.95;3.50;;;;;;;-12.72;81.27;101076.34;10251626;29;20090;-68
2024/01/13 20:44:31;;;;;;;8.07;3.45;;;;;;;-13.38;80.67;100987.00;10251365;29;20456;-68
2024/01/13 20:49:32;;;;;;;7.35;3.40;;;;;;;-12.73;81.01;101089.16;10250587;29;20047;-68
2024/01/13 20:54:38;;;;;;;8.45;3.75;;;;;;;-12.82;80.39;101076.38;10250808;29;20523;-68
2024/01/13 20:59:43;;;;;;;7.47;3.20;;;;;;;-12.96;80.13;101086.63;10251096;28;20039;-68
2024/01/13 21:04:44;;;;;;;9.80;2.70;;;;;;;-12.94;80.44;101078.09;10249637;28;20054;-68
2024/01/13 21:09:48;;;;;;;5.97;2.92;;;;;;;-12.91;80.59;101088.31;10258078;28;20046;-69
2024/01/13 21:14:49;;;;;;;5.22;2.60;;;;;;;-12.85;80.93;101073.84;10258396;28;20050;-69
2024/01/13 21:19:49;;;;;;;7.32;2.65;;;;;;;-12.82;80.91;101096.84;10257683;28;20050;-69
2024/01/13 21:24:51;;;;;;;10.60;3.90;;;;;;;-13.02;80.64;101084.06;10257233;28;20039;-68
2024/01/13 21:29:53;;;;;;;9.77;4.32;;;;;;;-12.83;80.98;101100.25;10256860;28;20087;-69
2024/01/13 21:34:54;;;;;;;8.30;3.22;;;;;;;-12.75;81.35;101106.22;10257246;28;20039;-68
2024/01/13 21:39:55;;;;;;;14.20;5.53;;;;;;;-12.96;81.64;101055.94;10257393;28;20046;-69
2024/01/13 21:44:58;;;;;;;28.85;10.73;;;;;;;-12.69;81.36;101116.44;10256754;28;20066;-68
2024/01/13 21:49:59;;;;;;;14.38;5.10;;;;;;;-12.61;81.70;101113.88;10256764;28;20046;-69
2024/01/13 21:55:00;;;;;;;13.40;5.40;;;;;;;-12.60;81.94;101097.66;10256170;28;20050;-68
2024/01/13 22:00:01;;;;;;;12.18;4.28;;;;;;;-13.22;81.22;101002.28;10257188;28;20517;-69
2024/01/13 22:05:02;;;;;;;9.73;4.05;;;;;;;-12.70;81.24;101100.22;10255765;28;20039;-69
2024/01/13 22:10:03;;;;;;;8.68;4.20;;;;;;;-12.70;81.48;101109.63;10255249;29;20058;-69
2024/01/13 22:15:04;;;;;;;10.13;3.50;;;;;;;-12.92;81.36;101055.94;10255428;28;20499;-69
2024/01/13 22:20:08;;;;;;;9.80;3.90;;;;;;;-12.74;80.60;101113.91;10256291;28;20054;-69
2024/01/13 22:25:09;;;;;;;11.07;3.25;;;;;;;-13.00;80.80;101080.66;10254954;28;20535;-69
2024/01/13 22:30:10;;;;;;;9.38;3.42;;;;;;;-12.79;81.15;101102.81;10255730;28;20142;-68
2024/01/13 22:35:11;;;;;;;9.80;3.58;;;;;;;-12.85;81.17;101122.44;10255672;28;20443;-69
2024/01/13 22:40:12;;;;;;;6.35;2.83;;;;;;;-12.91;81.40;101103.69;10254200;28;20503;-69
2024/01/13 22:45:16;;;;;;;8.45;3.72;;;;;;;-13.11;81.87;101059.38;10255175;29;20146;-69
2024/01/13 22:50:17;;;;;;;10.07;3.70;;;;;;;-12.76;82.18;101096.84;10254425;28;20043;-69
2024/01/13 22:55:18;;;;;;;10.55;4.63;;;;;;;-12.73;82.04;101104.50;10253709;29;20062;-68